Time;durP1;ratioP1;P1;durP2;ratioP2;P2;SDS_P1;SDS_P2;PMS_P1;PMS_P2;Temp;Humidity;BMP_temperature;BMP_pressure;BME280_temperature;BME280_humidity;BME280_pressure;Samples;Min_cycle;Max_cycle;Signal;HPM_P1;HPM_P2
2024/04/10 00:00:15;;;;;;;0.30;0.30;;;12.60;99.90;;;;;;4428546;32;20085;-63
2024/04/10 00:02:41;;;;;;;0.62;0.57;;;12.70;99.90;;;;;;4429631;32;20077;-62
2024/04/10 00:05:08;;;;;;;0.57;0.52;;;12.60;99.90;;;;;;4428740;32;20066;-63
2024/04/10 00:07:34;;;;;;;0.40;0.40;;;12.70;99.90;;;;;;4426140;32;20143;-63
2024/04/10 00:09:59;;;;;;;0.40;0.40;;;12.70;99.90;;;;;;4424524;32;20074;-64
2024/04/10 00:12:26;;;;;;;1.65;0.47;;;12.70;99.90;;;;;;4427031;32;20073;-62
2024/04/10 00:14:52;;;;;;;0.32;0.32;;;12.60;99.90;;;;;;4426315;32;20073;-62
2024/04/10 00:17:17;;;;;;;0.30;0.30;;;12.70;99.90;;;;;;4428387;32;20065;-63
2024/04/10 00:19:50;;;;;;;0.60;0.60;;;12.70;99.90;;;;;;4429157;32;20086;-63
2024/04/10 00:22:15;;;;;;;0.40;0.40;;;12.70;99.90;;;;;;4427146;32;20072;-63
2024/04/10 00:24:41;;;;;;;0.50;0.50;;;12.60;99.90;;;;;;4430654;32;20076;-63
2024/04/10 00:27:07;;;;;;;0.70;0.55;;;12.60;99.90;;;;;;4427897;32;20074;-61
2024/04/10 00:29:32;;;;;;;0.30;0.30;;;12.60;99.90;;;;;;4426953;32;20057;-63
2024/04/10 00:31:59;;;;;;;0.52;0.52;;;12.50;99.90;;;;;;4430956;32;20586;-63
2024/04/10 00:34:24;;;;;;;0.30;0.30;;;12.60;99.90;;;;;;4429736;32;20371;-63
2024/04/10 00:36:51;;;;;;;0.40;0.40;;;12.60;99.90;;;;;;4427530;32;20470;-62
2024/04/10 00:39:16;;;;;;;1.85;0.57;;;12.50;99.90;;;;;;4428264;32;20520;-62
2024/04/10 00:41:42;;;;;;;3.00;0.57;;;12.60;99.90;;;;;;4423258;32;20077;-63
2024/04/10 00:44:08;;;;;;;0.68;0.45;;;12.60;99.90;;;;;;4429723;32;20070;-61
2024/04/10 00:46:35;;;;;;;0.20;0.20;;;12.60;99.90;;;;;;4429386;32;20086;-61
2024/04/10 00:49:01;;;;;;;1.50;0.85;;;12.60;99.90;;;;;;4428908;32;20556;-62
2024/04/10 00:51:27;;;;;;;0.47;0.47;;;12.70;99.90;;;;;;4429712;32;20056;-62
2024/04/10 00:53:54;;;;;;;0.30;0.30;;;12.50;99.90;;;;;;4431848;32;20092;-63
2024/04/10 00:56:20;;;;;;;0.65;0.50;;;12.50;99.90;;;;;;4425180;32;20179;-62
2024/04/10 00:58:47;;;;;;;0.20;0.20;;;12.50;99.90;;;;;;4436148;32;20084;-63
2024/04/10 01:01:14;;;;;;;0.80;0.57;;;12.40;99.90;;;;;;4416294;32;20525;-62
2024/04/10 01:03:40;;;;;;;0.40;0.40;;;12.40;99.90;;;;;;4414289;32;20064;-63
2024/04/10 01:06:08;;;;;;;0.30;0.30;;;12.50;99.90;;;;;;4426084;32;20499;-61
2024/04/10 01:08:36;;;;;;;0.25;0.25;;;12.50;99.90;;;;;;4426213;32;20152;-62
2024/04/10 01:11:04;;;;;;;0.20;0.20;;;12.60;99.90;;;;;;4425140;32;20108;-62
2024/04/10 01:13:31;;;;;;;0.30;0.30;;;12.60;99.90;;;;;;4436937;32;20085;-62
2024/04/10 01:15:57;;;;;;;0.30;0.30;;;12.60;99.90;;;;;;4428358;32;20077;-63
2024/04/10 01:18:23;;;;;;;0.60;0.40;;;12.70;99.90;;;;;;4435156;32;20500;-62
2024/04/10 01:20:49;;;;;;;1.17;1.05;;;12.70;99.90;;;;;;4424970;32;20065;-62
2024/04/10 01:23:15;;;;;;;0.20;0.20;;;12.70;99.90;;;;;;4415425;32;20074;-62
2024/04/10 01:25:41;;;;;;;0.60;0.37;;;12.60;99.90;;;;;;4435420;32;20081;-62
2024/04/10 01:28:07;;;;;;;0.40;0.40;;;12.60;99.90;;;;;;4436162;32;20128;-62
2024/04/10 01:30:33;;;;;;;0.52;0.43;;;12.60;99.90;;;;;;4435624;32;20634;-63
2024/04/10 01:32:59;;;;;;;0.30;0.30;;;12.60;99.90;;;;;;4435659;32;20127;-63
2024/04/10 01:35:24;;;;;;;1.12;0.68;;;12.70;99.90;;;;;;4435064;32;20066;-63
2024/04/10 01:37:50;;;;;;;0.45;0.30;;;12.70;99.90;;;;;;4432440;32;20080;-65
2024/04/10 01:40:16;;;;;;;0.30;0.30;;;12.70;99.90;;;;;;4436427;32;21572;-62
2024/04/10 01:42:45;;;;;;;0.52;0.50;;;12.70;99.90;;;;;;4437459;32;21082;-62
2024/04/10 01:45:11;;;;;;;0.30;0.30;;;12.60;99.90;;;;;;4428857;32;20094;-62
2024/04/10 01:47:37;;;;;;;0.20;0.20;;;12.70;99.90;;;;;;4438253;32;20065;-63
2024/04/10 01:50:02;;;;;;;0.20;0.20;;;12.60;99.90;;;;;;4437266;32;20061;-64
2024/04/10 01:52:28;;;;;;;0.30;0.30;;;12.70;99.90;;;;;;4431099;32;20076;-62
2024/04/10 01:54:54;;;;;;;0.50;0.50;;;12.60;99.90;;;;;;4429127;32;20412;-63
2024/04/10 01:57:21;;;;;;;0.30;0.30;;;12.60;99.90;;;;;;4437483;32;20104;-63
2024/04/10 01:59:47;;;;;;;0.52;0.52;;;12.60;99.90;;;;;;4438441;32;20889;-62
2024/04/10 02:02:13;;;;;;;0.43;0.43;;;12.70;99.90;;;;;;4439829;32;20124;-62
2024/04/10 02:04:39;;;;;;;0.25;0.25;;;12.60;99.90;;;;;;4431444;32;20069;-62
2024/04/10 02:07:05;;;;;;;7.32;0.40;;;12.70;99.90;;;;;;4429611;32;20107;-63
2024/04/10 02:09:30;;;;;;;1.02;0.70;;;12.60;99.90;;;;;;4437472;32;20105;-62
2024/04/10 02:11:57;;;;;;;0.37;0.32;;;12.70;99.90;;;;;;4439352;32;20081;-63
2024/04/10 02:14:22;;;;;;;0.30;0.30;;;12.80;99.90;;;;;;4428081;32;21420;-63
2024/04/10 02:16:48;;;;;;;0.25;0.25;;;12.70;99.90;;;;;;4437349;32;20073;-62
2024/04/10 02:19:14;;;;;;;0.80;0.73;;;12.70;99.90;;;;;;4435845;32;20085;-63
2024/04/10 02:21:39;;;;;;;0.55;0.55;;;12.70;99.90;;;;;;4436651;32;20082;-62
2024/04/10 02:24:06;;;;;;;0.30;0.30;;;12.60;99.90;;;;;;4436465;32;20123;-62
2024/04/10 02:26:32;;;;;;;0.40;0.40;;;12.70;99.90;;;;;;4436572;32;20127;-63
2024/04/10 02:28:58;;;;;;;0.20;0.20;;;12.70;99.90;;;;;;4436658;32;20072;-62
2024/04/10 02:31:24;;;;;;;0.22;0.22;;;12.70;99.90;;;;;;4424937;32;20061;-60
2024/04/10 02:33:49;;;;;;;0.20;0.20;;;12.60;99.90;;;;;;4437401;32;20135;-62
2024/04/10 02:36:15;;;;;;;0.22;0.22;;;12.70;99.90;;;;;;4439001;32;20073;-63
2024/04/10 02:38:40;;;;;;;0.80;0.30;;;12.70;99.90;;;;;;4434716;32;20127;-62
2024/04/10 02:41:07;;;;;;;0.30;0.30;;;12.60;99.90;;;;;;4427286;32;20078;-62
2024/04/10 02:43:33;;;;;;;0.20;0.20;;;12.60;99.90;;;;;;4436679;32;20090;-62
2024/04/10 02:46:01;;;;;;;0.30;0.30;;;12.60;99.90;;;;;;4415157;32;20074;-62
2024/04/10 02:48:27;;;;;;;0.40;0.40;;;12.60;99.90;;;;;;4436506;32;20072;-62
2024/04/10 02:50:53;;;;;;;0.20;0.20;;;12.70;99.90;;;;;;4426070;32;20069;-62
2024/04/10 02:53:19;;;;;;;0.30;0.30;;;12.60;99.90;;;;;;4426371;32;20528;-61
2024/04/10 02:55:46;;;;;;;0.30;0.30;;;12.60;99.90;;;;;;4436812;32;20064;-62
2024/04/10 02:58:12;;;;;;;0.35;0.35;;;12.60;99.90;;;;;;4437279;32;20080;-62
2024/04/10 03:00:54;;;;;;;0.30;0.30;;;12.70;99.90;;;;;;4429807;32;20081;-62
2024/04/10 03:03:21;;;;;;;0.30;0.30;;;12.70;99.90;;;;;;4430189;32;20556;-62
2024/04/10 03:06:00;;;;;;;0.20;0.20;;;12.60;99.90;;;;;;4427705;32;20069;-61
2024/04/10 03:08:26;;;;;;;17.73;0.60;;;12.60;99.90;;;;;;4415209;32;20080;-61
2024/04/10 03:10:52;;;;;;;0.28;0.28;;;12.60;99.90;;;;;;4437487;32;20069;-61
2024/04/10 03:13:17;;;;;;;0.43;0.43;;;12.50;99.90;;;;;;4438086;32;20093;-61
2024/04/10 03:15:43;;;;;;;0.93;0.82;;;12.50;99.90;;;;;;4435737;32;20123;-61
2024/04/10 03:18:09;;;;;;;0.30;0.30;;;12.50;99.90;;;;;;4427482;32;20109;-61
2024/04/10 03:20:35;;;;;;;0.30;0.30;;;12.50;99.90;;;;;;4436724;32;21230;-61
2024/04/10 03:23:02;;;;;;;0.40;0.40;;;12.50;99.90;;;;;;4435473;32;20131;-61
2024/04/10 03:25:29;;;;;;;0.40;0.40;;;12.60;99.90;;;;;;4437757;32;20061;-62
2024/04/10 03:27:54;;;;;;;0.30;0.30;;;12.60;99.90;;;;;;4438042;32;20076;-61
2024/04/10 03:30:20;;;;;;;0.37;0.37;;;12.70;99.90;;;;;;4437883;32;20112;-61
2024/04/10 03:32:46;;;;;;;0.40;0.40;;;12.60;99.90;;;;;;4417901;32;20089;-61
2024/04/10 03:35:12;;;;;;;0.40;0.40;;;12.60;99.90;;;;;;4436492;32;20081;-61
2024/04/10 03:37:38;;;;;;;0.30;0.30;;;12.50;99.90;;;;;;4436646;32;20080;-62
2024/04/10 03:40:06;;;;;;;2.08;1.15;;;12.50;99.90;;;;;;4437316;32;20483;-61
2024/04/10 03:42:32;;;;;;;0.40;0.40;;;12.50;99.90;;;;;;4436332;32;20089;-61
2024/04/10 03:44:58;;;;;;;0.20;0.20;;;12.60;99.90;;;;;;4434834;32;20069;-61
2024/04/10 03:47:24;;;;;;;0.40;0.40;;;12.60;99.90;;;;;;4438121;32;20409;-61
2024/04/10 03:49:49;;;;;;;0.30;0.30;;;12.50;99.90;;;;;;4438544;32;20084;-62
2024/04/10 03:52:16;;;;;;;1.08;0.57;;;12.40;99.90;;;;;;4436707;32;20621;-61
2024/04/10 03:54:42;;;;;;;0.30;0.30;;;12.40;99.90;;;;;;4430584;32;20584;-61
2024/04/10 03:57:07;;;;;;;0.75;0.70;;;12.40;99.90;;;;;;4427186;32;20088;-62
2024/04/10 03:59:33;;;;;;;0.30;0.30;;;12.40;99.90;;;;;;4426229;32;20098;-61
2024/04/10 04:01:59;;;;;;;0.30;0.30;;;12.40;99.90;;;;;;4424546;32;20136;-61
2024/04/10 04:04:24;;;;;;;0.20;0.20;;;12.40;99.90;;;;;;4429672;32;20073;-61
2024/04/10 04:06:50;;;;;;;0.40;0.40;;;12.30;99.90;;;;;;4429223;32;20321;-61
2024/04/10 04:09:16;;;;;;;0.40;0.40;;;12.20;99.90;;;;;;4426322;32;20077;-61
2024/04/10 04:11:41;;;;;;;0.30;0.30;;;12.30;99.90;;;;;;4430469;32;20073;-61
2024/04/10 04:14:07;;;;;;;0.25;0.25;;;12.20;99.90;;;;;;4426855;32;20081;-61
2024/04/10 04:16:34;;;;;;;1.10;0.82;;;12.30;99.90;;;;;;4427575;32;20073;-61
2024/04/10 04:19:01;;;;;;;0.32;0.32;;;12.30;99.90;;;;;;4423597;32;20065;-61
2024/04/10 04:21:27;;;;;;;0.22;0.22;;;12.40;99.90;;;;;;4423115;32;20143;-61
2024/04/10 04:23:53;;;;;;;0.40;0.40;;;12.40;99.90;;;;;;4422447;32;20065;-62
2024/04/10 04:26:19;;;;;;;0.40;0.40;;;12.40;99.90;;;;;;4426792;32;20539;-62
2024/04/10 04:28:46;;;;;;;0.35;0.35;;;12.20;99.90;;;;;;4427822;32;20057;-62
2024/04/10 04:31:14;;;;;;;0.65;0.55;;;12.30;99.90;;;;;;4425436;32;20066;-63
2024/04/10 04:33:40;;;;;;;14.45;2.83;;;12.30;99.90;;;;;;4426927;32;20076;-63
2024/04/10 04:36:07;;;;;;;0.40;0.40;;;12.30;99.90;;;;;;4427416;32;20121;-63
2024/04/10 04:38:33;;;;;;;0.60;0.60;;;12.30;99.90;;;;;;4426454;32;20128;-62
2024/04/10 04:40:58;;;;;;;11.00;0.65;;;12.30;99.90;;;;;;4427984;32;20076;-62
2024/04/10 04:43:25;;;;;;;0.30;0.30;;;12.30;99.90;;;;;;4429363;32;20078;-61
2024/04/10 04:45:51;;;;;;;3.60;0.85;;;12.30;99.90;;;;;;4428481;32;20073;-63
2024/04/10 04:48:17;;;;;;;0.30;0.30;;;12.30;99.90;;;;;;4429725;32;20115;-63
2024/04/10 04:50:43;;;;;;;0.20;0.20;;;12.30;99.90;;;;;;4428964;32;20072;-62
2024/04/10 04:53:10;;;;;;;0.43;0.30;;;12.30;99.90;;;;;;4423976;32;20131;-62
2024/04/10 04:55:36;;;;;;;0.30;0.30;;;12.30;99.90;;;;;;4436838;32;20064;-62
2024/04/10 04:58:03;;;;;;;0.60;0.60;;;12.20;99.90;;;;;;4434540;32;20077;-63
2024/04/10 05:00:29;;;;;;;0.30;0.30;;;12.30;99.90;;;;;;4432939;32;20096;-61
2024/04/10 05:02:56;;;;;;;0.40;0.40;;;12.40;99.90;;;;;;4435452;32;20057;-61
2024/04/10 05:05:22;;;;;;;0.52;0.52;;;12.40;99.90;;;;;;4434515;32;20065;-61
2024/04/10 05:07:48;;;;;;;0.20;0.20;;;12.40;99.90;;;;;;4395157;32;20584;-61
2024/04/10 05:10:16;;;;;;;0.40;0.40;;;12.40;99.90;;;;;;4424257;32;20066;-62
2024/04/10 05:12:42;;;;;;;0.30;0.30;;;12.40;99.90;;;;;;4409308;32;20557;-63
2024/04/10 05:15:10;;;;;;;14.68;0.60;;;12.50;99.90;;;;;;4408332;32;20068;-63
2024/04/10 05:17:38;;;;;;;0.40;0.40;;;12.40;99.90;;;;;;4427399;32;20115;-63
2024/04/10 05:20:04;;;;;;;0.30;0.30;;;12.50;99.90;;;;;;4421805;32;20070;-63
2024/04/10 05:22:30;;;;;;;1.55;0.50;;;12.50;99.90;;;;;;4412649;32;20563;-64
2024/04/10 05:24:56;;;;;;;1.55;0.75;;;12.40;99.90;;;;;;4436088;32;20159;-61
2024/04/10 05:27:25;;;;;;;0.30;0.30;;;12.30;99.90;;;;;;4387664;32;20097;-62
2024/04/10 05:29:59;;;;;;;0.30;0.30;;;12.30;99.90;;;;;;4433939;32;20061;-62
2024/04/10 05:32:26;;;;;;;0.47;0.47;;;12.40;99.90;;;;;;4426729;32;20077;-62
2024/04/10 05:34:53;;;;;;;0.68;0.32;;;12.30;99.90;;;;;;4413202;32;20131;-62
2024/04/10 05:37:19;;;;;;;1.00;0.90;;;12.30;99.90;;;;;;4426085;32;20445;-62
2024/04/10 05:39:45;;;;;;;0.37;0.37;;;12.20;99.90;;;;;;4428554;32;20164;-62
2024/04/10 05:42:10;;;;;;;1.85;0.73;;;12.20;99.90;;;;;;4436518;32;20527;-63
2024/04/10 05:44:36;;;;;;;0.40;0.40;;;12.20;99.90;;;;;;4435115;32;20072;-63
2024/04/10 05:47:03;;;;;;;10.00;0.60;;;12.30;99.90;;;;;;4427732;32;20065;-64
2024/04/10 05:49:30;;;;;;;0.30;0.30;;;12.20;99.90;;;;;;4436949;32;20120;-63
2024/04/10 05:51:55;;;;;;;0.20;0.20;;;12.30;99.90;;;;;;4436041;32;20082;-63
2024/04/10 05:54:21;;;;;;;0.30;0.30;;;12.30;99.90;;;;;;4427157;32;20064;-63
2024/04/10 05:56:47;;;;;;;0.50;0.50;;;12.30;99.90;;;;;;4435235;32;20160;-62
2024/04/10 05:59:12;;;;;;;0.75;0.70;;;12.30;99.90;;;;;;4435963;32;20080;-63
2024/04/10 06:01:40;;;;;;;1.70;0.73;;;12.20;99.90;;;;;;4436029;32;20112;-62
2024/04/10 06:04:06;;;;;;;0.20;0.20;;;12.10;99.90;;;;;;4438185;32;20073;-63
2024/04/10 06:06:32;;;;;;;0.20;0.20;;;12.20;99.90;;;;;;4436601;32;20314;-62
2024/04/10 06:08:58;;;;;;;0.32;0.32;;;12.20;99.90;;;;;;4436588;32;20525;-63
2024/04/10 06:11:29;;;;;;;0.45;0.45;;;12.30;99.90;;;;;;4437726;32;20089;-63
2024/04/10 06:13:57;;;;;;;0.25;0.25;;;12.40;99.90;;;;;;4426312;32;20537;-62
2024/04/10 06:16:23;;;;;;;0.70;0.70;;;12.30;99.90;;;;;;4422238;32;20069;-62
2024/04/10 06:18:49;;;;;;;0.25;0.25;;;12.40;99.90;;;;;;4423776;32;20057;-63
2024/04/10 06:21:14;;;;;;;0.37;0.37;;;12.40;99.90;;;;;;4426452;32;20081;-62
2024/04/10 06:23:41;;;;;;;0.52;0.52;;;12.40;99.90;;;;;;4436248;32;20072;-63
2024/04/10 06:26:07;;;;;;;0.47;0.45;;;12.30;99.90;;;;;;4427604;32;20120;-63
2024/04/10 06:28:33;;;;;;;0.95;0.93;;;12.30;99.90;;;;;;4416216;32;20532;-63
2024/04/10 06:31:02;;;;;;;0.30;0.30;;;12.40;99.90;;;;;;4424790;32;20394;-63
2024/04/10 06:33:28;;;;;;;1.58;0.40;;;12.30;99.90;;;;;;4431475;32;20638;-64
2024/04/10 06:35:57;;;;;;;1.55;1.02;;;12.20;99.90;;;;;;4425890;32;20081;-64
2024/04/10 06:38:22;;;;;;;1.75;0.77;;;12.20;99.90;;;;;;4404140;32;20117;-64
2024/04/10 06:40:56;;;;;;;0.95;0.88;;;12.20;99.90;;;;;;4421932;32;20069;-63
2024/04/10 06:43:22;;;;;;;0.20;0.20;;;12.10;99.90;;;;;;4420359;32;20179;-64
2024/04/10 06:45:57;;;;;;;0.43;0.43;;;12.10;99.90;;;;;;4419134;32;20671;-63
2024/04/10 06:48:22;;;;;;;0.30;0.30;;;12.10;99.90;;;;;;4412866;32;20128;-63
2024/04/10 06:50:48;;;;;;;0.95;0.60;;;12.20;99.90;;;;;;4425838;32;20618;-63
2024/04/10 06:53:15;;;;;;;0.40;0.40;;;12.30;99.90;;;;;;4429118;32;20088;-63
2024/04/10 06:55:41;;;;;;;7.95;0.65;;;12.40;99.90;;;;;;4425055;32;20253;-63
2024/04/10 06:58:06;;;;;;;0.65;0.60;;;12.30;99.90;;;;;;4412486;32;21070;-63
2024/04/10 07:00:33;;;;;;;3.65;0.90;;;12.40;99.90;;;;;;4416640;32;20147;-64
2024/04/10 07:02:59;;;;;;;0.52;0.40;;;12.40;99.90;;;;;;4412792;32;20137;-65
2024/04/10 07:05:24;;;;;;;1.65;0.88;;;12.40;99.90;;;;;;4424629;32;20109;-64
2024/04/10 07:07:50;;;;;;;0.60;0.60;;;12.50;99.90;;;;;;4425906;32;20089;-64
2024/04/10 07:10:16;;;;;;;0.20;0.20;;;12.40;99.90;;;;;;4412130;32;20092;-64
2024/04/10 07:12:41;;;;;;;0.20;0.20;;;12.50;99.90;;;;;;4416144;32;20081;-64
2024/04/10 07:15:07;;;;;;;0.30;0.30;;;12.60;99.90;;;;;;4415805;32;20604;-63
2024/04/10 07:17:33;;;;;;;1.17;0.85;;;12.70;99.90;;;;;;4418073;32;20081;-64
2024/04/10 07:19:58;;;;;;;0.62;0.62;;;12.70;99.90;;;;;;4425090;32;20096;-64
2024/04/10 07:22:24;;;;;;;0.30;0.30;;;12.70;99.90;;;;;;4407426;32;20080;-63
2024/04/10 07:24:50;;;;;;;0.30;0.30;;;12.70;99.90;;;;;;4426112;32;20419;-63
2024/04/10 07:27:16;;;;;;;0.40;0.40;;;12.70;99.90;;;;;;4412388;32;20069;-63
2024/04/10 07:29:44;;;;;;;0.20;0.20;;;12.70;99.90;;;;;;4424936;32;20200;-63
2024/04/10 07:32:09;;;;;;;0.43;0.43;;;12.80;99.90;;;;;;4409305;32;20080;-63
2024/04/10 07:34:36;;;;;;;0.40;0.40;;;12.60;99.90;;;;;;4423610;32;20143;-63
2024/04/10 07:37:03;;;;;;;0.50;0.50;;;12.60;99.90;;;;;;4420229;32;20089;-64
2024/04/10 07:39:29;;;;;;;1.08;1.02;;;12.70;99.90;;;;;;4418863;32;20123;-63
2024/04/10 07:41:54;;;;;;;1.80;0.85;;;12.70;99.90;;;;;;4421614;32;20076;-63
2024/04/10 07:44:20;;;;;;;0.32;0.32;;;12.70;99.90;;;;;;4411179;32;20093;-63
2024/04/10 07:46:46;;;;;;;0.40;0.40;;;12.90;99.90;;;;;;4423907;32;20053;-63
2024/04/10 07:49:13;;;;;;;0.43;0.43;;;13.00;99.90;;;;;;4427326;32;20442;-63
2024/04/10 07:51:39;;;;;;;0.30;0.30;;;13.00;99.90;;;;;;4414935;32;20547;-63
2024/04/10 07:54:04;;;;;;;0.37;0.37;;;13.00;99.90;;;;;;4428921;32;20344;-63
2024/04/10 07:56:30;;;;;;;0.45;0.45;;;13.00;99.90;;;;;;4405191;32;20128;-63
2024/04/10 07:58:56;;;;;;;0.40;0.40;;;12.90;99.90;;;;;;4425559;32;20057;-63
2024/04/10 08:01:22;;;;;;;1.05;1.00;;;12.90;99.90;;;;;;4421193;32;20594;-63
2024/04/10 08:03:47;;;;;;;1.85;0.73;;;13.10;99.90;;;;;;4420738;32;20062;-63
2024/04/10 08:06:13;;;;;;;0.40;0.40;;;13.10;99.90;;;;;;4419436;32;20390;-63
2024/04/10 08:08:39;;;;;;;0.47;0.47;;;13.10;99.90;;;;;;4420377;32;20093;-63
2024/04/10 08:11:07;;;;;;;0.30;0.30;;;13.00;99.90;;;;;;4415338;32;20081;-63
2024/04/10 08:13:33;;;;;;;0.95;0.90;;;13.00;99.90;;;;;;4387355;32;20089;-63
2024/04/10 08:16:04;;;;;;;0.40;0.40;;;13.10;99.90;;;;;;4387854;32;20077;-63
2024/04/10 08:18:31;;;;;;;0.35;0.35;;;13.20;99.90;;;;;;4401053;32;20714;-63
2024/04/10 08:21:01;;;;;;;5.68;0.57;;;13.10;99.90;;;;;;4405864;32;20151;-63
2024/04/10 08:23:28;;;;;;;0.30;0.30;;;13.20;99.90;;;;;;4415340;32;20069;-63
2024/04/10 08:25:55;;;;;;;0.70;0.70;;;13.30;99.90;;;;;;4431518;32;20074;-63
2024/04/10 08:28:21;;;;;;;0.50;0.50;;;13.30;99.90;;;;;;4427652;32;20085;-63
2024/04/10 08:30:47;;;;;;;12.20;1.10;;;13.40;99.90;;;;;;4428991;32;20090;-63
2024/04/10 08:33:13;;;;;;;0.40;0.40;;;13.50;99.90;;;;;;4427105;32;20101;-63
2024/04/10 08:35:40;;;;;;;0.50;0.50;;;13.50;99.90;;;;;;4430705;32;21218;-62
2024/04/10 08:38:06;;;;;;;0.60;0.60;;;13.70;99.90;;;;;;4430786;32;20080;-62
2024/04/10 08:40:35;;;;;;;0.20;0.20;;;13.60;99.90;;;;;;4424658;32;20564;-63
2024/04/10 08:43:02;;;;;;;0.32;0.32;;;13.50;99.90;;;;;;4411467;32;20096;-63
2024/04/10 08:45:30;;;;;;;0.40;0.40;;;13.50;99.90;;;;;;4426094;32;20580;-62
2024/04/10 08:47:57;;;;;;;2.45;1.12;;;13.60;99.90;;;;;;4425291;32;20131;-63
2024/04/10 08:50:25;;;;;;;0.57;0.57;;;13.60;99.90;;;;;;4410720;32;20544;-61
2024/04/10 08:52:53;;;;;;;0.30;0.30;;;13.50;99.90;;;;;;4404543;32;20492;-63
2024/04/10 08:55:19;;;;;;;19.80;0.50;;;13.70;99.90;;;;;;4412246;32;20123;-63
2024/04/10 08:57:45;;;;;;;0.30;0.30;;;13.60;99.90;;;;;;4409723;32;20630;-62
2024/04/10 09:02:36;;;;;;;0.40;0.40;;;13.80;99.90;;;;;;4431686;32;20065;-63
2024/04/10 09:05:02;;;;;;;0.30;0.30;;;13.80;99.90;;;;;;4426698;32;20062;-62
2024/04/10 09:07:28;;;;;;;0.20;0.20;;;13.90;99.90;;;;;;4431641;32;20175;-63
2024/04/10 09:09:53;;;;;;;0.40;0.40;;;13.90;99.90;;;;;;4433925;32;20104;-62
2024/04/10 09:12:23;;;;;;;0.30;0.30;;;13.70;99.90;;;;;;4423245;32;20085;-63
2024/04/10 09:14:49;;;;;;;0.30;0.30;;;13.60;99.90;;;;;;4420848;32;20088;-62
2024/04/10 09:17:17;;;;;;;1.08;0.40;;;13.50;99.90;;;;;;4417705;32;20113;-62
2024/04/10 09:19:42;;;;;;;1.95;0.60;;;13.40;99.90;;;;;;4399475;32;20089;-63
2024/04/10 09:22:11;;;;;;;0.22;0.22;;;13.50;99.90;;;;;;4420772;32;20600;-62
2024/04/10 09:24:36;;;;;;;0.32;0.32;;;13.60;99.90;;;;;;4404986;32;20212;-62
2024/04/10 09:27:10;;;;;;;0.55;0.50;;;13.80;99.90;;;;;;4421719;32;20130;-63
2024/04/10 09:29:35;;;;;;;1.45;0.30;;;13.80;99.90;;;;;;4430073;32;20487;-63
2024/04/10 09:32:04;;;;;;;0.22;0.22;;;13.90;99.90;;;;;;4428243;32;20170;-65
2024/04/10 09:34:30;;;;;;;0.30;0.30;;;14.10;99.90;;;;;;4428102;32;20872;-63
2024/04/10 09:36:56;;;;;;;0.40;0.40;;;14.00;99.90;;;;;;4425134;32;20073;-63
2024/04/10 09:39:22;;;;;;;0.25;0.25;;;14.00;99.90;;;;;;4426722;32;20054;-62
2024/04/10 09:41:55;;;;;;;0.73;0.70;;;14.00;99.90;;;;;;4413495;32;20073;-62
2024/04/10 09:44:28;;;;;;;0.70;0.70;;;14.00;99.90;;;;;;4413132;32;20089;-63
2024/04/10 09:46:58;;;;;;;0.77;0.45;;;14.00;99.90;;;;;;4421863;32;20576;-63
2024/04/10 09:49:28;;;;;;;0.30;0.30;;;14.10;99.90;;;;;;4405079;32;20097;-63
2024/04/10 09:51:58;;;;;;;0.50;0.50;;;13.90;99.90;;;;;;4393934;32;20524;-63
2024/04/10 09:54:26;;;;;;;0.40;0.40;;;13.80;99.90;;;;;;4422692;32;20103;-63
2024/04/10 09:56:52;;;;;;;0.30;0.30;;;13.90;99.90;;;;;;4417040;32;20548;-64
2024/04/10 09:59:19;;;;;;;0.37;0.37;;;14.00;99.90;;;;;;4406522;32;20490;-63
2024/04/10 10:01:45;;;;;;;0.30;0.30;;;14.00;99.90;;;;;;4420670;32;20830;-64
2024/04/10 10:04:11;;;;;;;0.20;0.20;;;13.90;99.90;;;;;;4425949;32;20117;-63
2024/04/10 10:06:36;;;;;;;0.50;0.50;;;14.00;99.90;;;;;;4429611;32;20100;-64
2024/04/10 10:09:02;;;;;;;0.32;0.32;;;13.80;99.90;;;;;;4421549;32;20655;-62
2024/04/10 10:11:28;;;;;;;0.40;0.40;;;13.90;99.90;;;;;;4428090;32;20065;-63
2024/04/10 10:13:58;;;;;;;0.28;0.28;;;13.90;99.90;;;;;;4428021;32;20135;-64
2024/04/10 10:16:25;;;;;;;0.45;0.45;;;14.00;99.90;;;;;;4426122;32;20453;-64
2024/04/10 10:18:56;;;;;;;0.40;0.40;;;14.00;99.90;;;;;;4420233;32;20081;-64
2024/04/10 10:21:22;;;;;;;0.35;0.35;;;13.90;99.90;;;;;;4413082;32;20082;-64
2024/04/10 10:23:56;;;;;;;5.70;1.58;;;13.90;99.90;;;;;;4408957;32;20065;-64
2024/04/10 10:26:22;;;;;;;0.40;0.35;;;14.00;99.90;;;;;;4423496;32;20131;-64
2024/04/10 10:28:47;;;;;;;0.30;0.30;;;14.10;99.90;;;;;;4422991;32;20081;-63
2024/04/10 10:31:16;;;;;;;0.32;0.32;;;14.20;99.90;;;;;;4404486;32;20093;-64
2024/04/10 10:33:43;;;;;;;0.22;0.22;;;14.20;99.90;;;;;;4413354;32;20077;-63
2024/04/10 10:36:09;;;;;;;0.40;0.40;;;14.30;99.90;;;;;;4407385;32;20073;-63
2024/04/10 10:38:35;;;;;;;0.20;0.20;;;14.30;99.90;;;;;;4408970;32;20430;-63
2024/04/10 10:41:09;;;;;;;0.40;0.40;;;14.20;99.90;;;;;;4426156;32;20114;-62
2024/04/10 10:43:36;;;;;;;0.30;0.30;;;14.20;99.90;;;;;;4410557;32;20073;-63
2024/04/10 10:46:04;;;;;;;0.20;0.20;;;14.30;99.90;;;;;;4409982;32;20529;-63
2024/04/10 10:48:30;;;;;;;0.28;0.28;;;14.50;99.90;;;;;;4414044;32;20161;-63
2024/04/10 10:50:57;;;;;;;0.22;0.22;;;14.70;99.90;;;;;;4420569;32;20081;-63
2024/04/10 10:53:23;;;;;;;0.30;0.30;;;14.60;99.90;;;;;;4427419;32;20073;-63
2024/04/10 10:55:51;;;;;;;0.30;0.30;;;14.80;99.90;;;;;;4414520;32;20130;-63
2024/04/10 10:58:16;;;;;;;1.20;0.37;;;14.70;99.90;;;;;;4421659;32;20065;-63
2024/04/10 11:00:42;;;;;;;0.45;0.45;;;14.70;99.90;;;;;;4398512;32;20434;-63
2024/04/10 11:03:11;;;;;;;0.30;0.30;;;14.60;99.90;;;;;;4422053;32;20286;-63
2024/04/10 11:05:38;;;;;;;0.32;0.32;;;14.60;99.90;;;;;;4422747;32;20131;-63
2024/04/10 11:08:04;;;;;;;0.30;0.30;;;14.70;99.90;;;;;;4427443;32;20154;-63
2024/04/10 11:10:30;;;;;;;2.65;0.32;;;14.80;99.90;;;;;;4426819;32;20073;-64
2024/04/10 11:13:01;;;;;;;0.20;0.20;;;14.80;99.90;;;;;;4416028;32;20124;-63
2024/04/10 11:15:27;;;;;;;0.20;0.20;;;14.80;99.90;;;;;;4415632;32;20069;-62
2024/04/10 11:18:09;;;;;;;2.72;0.32;;;14.80;99.90;;;;;;4429288;32;20069;-63
2024/04/10 11:20:35;;;;;;;2.60;0.70;;;14.80;99.90;;;;;;4428522;32;20088;-63
2024/04/10 11:23:02;;;;;;;0.30;0.30;;;14.40;99.90;;;;;;4410663;32;20881;-62
2024/04/10 11:25:29;;;;;;;5.18;1.00;;;14.40;99.90;;;;;;4417544;32;20080;-62
2024/04/10 11:27:57;;;;;;;0.50;0.50;;;14.60;99.90;;;;;;4425974;32;20535;-62
2024/04/10 11:30:24;;;;;;;0.25;0.25;;;14.80;99.90;;;;;;4424653;32;20072;-62
2024/04/10 11:32:51;;;;;;;0.30;0.30;;;14.80;99.90;;;;;;4429847;32;20479;-62
2024/04/10 11:35:16;;;;;;;0.20;0.20;;;14.60;99.90;;;;;;4430207;32;20478;-62
2024/04/10 11:37:42;;;;;;;0.20;0.20;;;14.60;99.90;;;;;;4421530;32;20109;-62
2024/04/10 11:40:11;;;;;;;0.30;0.30;;;15.00;99.90;;;;;;4416279;32;20105;-62
2024/04/10 11:42:39;;;;;;;0.68;0.50;;;15.60;99.90;;;;;;4419523;32;20120;-62
2024/04/10 11:45:07;;;;;;;0.32;0.32;;;15.50;99.90;;;;;;4423655;32;20098;-62
2024/04/10 11:47:34;;;;;;;0.20;0.20;;;15.70;99.90;;;;;;4395335;32;20438;-62
2024/04/10 11:49:59;;;;;;;0.30;0.30;;;15.80;99.90;;;;;;4407782;32;20120;-63
2024/04/10 11:52:25;;;;;;;0.20;0.20;;;15.60;99.90;;;;;;4420996;32;20069;-62
2024/04/10 11:54:50;;;;;;;0.30;0.30;;;15.60;99.90;;;;;;4418616;32;80800;-63
2024/04/10 11:57:16;;;;;;;0.30;0.30;;;15.60;99.90;;;;;;4421356;32;20723;-62
2024/04/10 11:59:42;;;;;;;0.30;0.30;;;15.40;99.90;;;;;;4423776;32;20065;-62
2024/04/10 12:02:07;;;;;;;0.20;0.20;;;15.10;99.90;;;;;;4422595;32;20341;-62
2024/04/10 12:04:33;;;;;;;0.20;0.20;;;15.00;99.90;;;;;;4417247;32;20081;-62
2024/04/10 12:07:00;;;;;;;0.30;0.30;;;14.90;99.90;;;;;;4415003;32;20081;-62
2024/04/10 12:09:25;;;;;;;2.90;0.60;;;14.60;99.90;;;;;;4418162;32;20076;-62
2024/04/10 12:11:52;;;;;;;0.30;0.30;;;14.50;99.90;;;;;;4418256;32;20093;-63
2024/04/10 12:14:17;;;;;;;0.50;0.50;;;14.30;99.90;;;;;;4412419;32;20085;-62
2024/04/10 12:16:43;;;;;;;0.20;0.20;;;14.30;99.90;;;;;;4423396;32;20074;-62
2024/04/10 12:19:09;;;;;;;0.30;0.30;;;14.20;99.90;;;;;;4416817;32;20161;-63
2024/04/10 12:21:34;;;;;;;0.28;0.28;;;14.30;99.90;;;;;;4414314;32;20074;-63
2024/04/10 12:24:02;;;;;;;0.20;0.20;;;14.40;99.90;;;;;;4417899;32;20387;-63
2024/04/10 12:26:33;;;;;;;0.30;0.30;;;14.50;99.90;;;;;;4415851;32;20151;-62
2024/04/10 12:28:59;;;;;;;0.30;0.30;;;14.70;99.90;;;;;;4421407;32;20570;-62
2024/04/10 12:31:25;;;;;;;0.30;0.30;;;15.20;99.90;;;;;;4424600;32;20394;-63
2024/04/10 12:33:52;;;;;;;0.20;0.20;;;15.90;99.90;;;;;;4425703;32;20485;-63
2024/04/10 12:38:18;;;;;;;0.20;0.20;;;16.00;99.90;;;;;;4416034;32;20143;-63
2024/04/10 12:39:06;;;;;;;0.30;0.30;;;15.90;99.90;;;;;;4413820;32;20103;-63
2024/04/10 12:41:31;;;;;;;0.30;0.30;;;15.70;99.90;;;;;;4431658;32;20076;-63
2024/04/10 12:44:02;;;;;;;0.30;0.30;;;15.40;99.90;;;;;;4433320;32;20580;-62